Trail, OR (97541)

12:35 AM PST on December 22, 2014 (GMT -0800)
Lost Creek Lake | Change Station
CLOSE
Current Station
Personal Weather Station
Location: Trail, OR
Elevation: 1580 ft
Nearby Weather Stations

Elev 1580 ft 42.66 °N, 122.69 °W | Updated 5 minutes ago

Overcast
Overcast
53.4 °F
Feels Like 53.4 °F
N
3.0
Wind Variable Wind from SW
Gusts 6.0 mph

Today
High -- | Low -- °F
--% Chance of Precip.
Yesterday
High -- | Low -- °F
Precip. -- in
7:38 AM 4:41 PM
New Moon, 0% visible
Pressure 30.24 in
Visibility 10.0 miles
Clouds Few 4600 ft
Scattered Clouds 5500 ft
Overcast 10000 ft
Dew Point 52 °F
Humidity 93%
Rainfall 0.00 in
Snow Depth Not available.
UV 0 out of 12
Pollen .60 out of 12
Air Quality Not available.
Flu Activity Not available.
METAR KMFR 220753Z AUTO 00000KT 10SM FEW046 SCT055 OVC100 13/11 A3025 RMK AO2 SLP239 T01280106 401830094

More Conditions Fewer Conditions

Pressure 30.24 in
Visibility 10.0 miles
Clouds Few 4600 ft
Scattered Clouds 5500 ft
Overcast 10000 ft
Dew Point 52 °F
Humidity 93%
Rainfall 0.00 in
Snow Depth Not available.
UV 0 out of 12
Pollen .60 out of 12
Air Quality Not available.
Flu Activity Not available.
METAR KMFR 220753Z AUTO 00000KT 10SM FEW046 SCT055 OVC100 13/11 A3025 RMK AO2 SLP239 T01280106 401830094

More Conditions Fewer Conditions

10-Day Weather Forecast

Almanac

Astronomy

Dec. 22, 2014 Rise Set
Actual Time
Civil Twilight
Nautical Twilight
Astronomical Twilight
Moon
Length of Visible Light
Length of Day
Tomorrow will be .
, % of the Moon is Illuminated

Today's Extremes

State Highs State Lows

Community

WunderPhotos

Upload Photos

1,779,580 photos uploaded!

WunderBlogs® & News

Nearby

Air Quality

  Air Quality AQ Index Pollutant
Not available.

Snow Depth

Station Depth Elevation

Earthquake Activity

City Distance Mag. Time & Date
Minimum magnitude displayed is 2.5.

Coastal Water Temperatures

Place Temperature

Nearby Weather Stations